createdAt,value
2018-05-09T00:02:26.372Z,19.60
2018-05-09T00:05:02.687Z,19.60
2018-05-09T00:07:38.392Z,19.60
2018-05-09T00:10:15.370Z,19.50
2018-05-09T00:12:51.634Z,19.40
2018-05-09T00:15:28.216Z,19.40
2018-05-09T00:18:05.597Z,19.20
2018-05-09T00:20:41.562Z,19.20
2018-05-09T00:23:17.206Z,19.40
2018-05-09T00:25:52.033Z,19.40
2018-05-09T00:28:27.972Z,19.30
2018-05-09T00:31:03.743Z,19.20
2018-05-09T00:33:38.572Z,18.90
2018-05-09T00:36:14.165Z,18.80
2018-05-09T00:38:49.870Z,18.70
2018-05-09T00:41:25.726Z,18.70
2018-05-09T00:44:01.395Z,18.60
2018-05-09T00:46:36.415Z,18.70
2018-05-09T00:49:12.061Z,18.80
2018-05-09T00:51:48.950Z,18.80
2018-05-09T00:54:33.403Z,18.80
2018-05-09T00:57:08.224Z,18.90
2018-05-09T00:59:43.606Z,18.80
2018-05-09T01:02:18.707Z,18.80
2018-05-09T01:04:54.062Z,18.80
2018-05-09T01:07:29.902Z,18.70
2018-05-09T01:10:05.760Z,18.60
2018-05-09T01:12:40.592Z,18.60
2018-05-09T01:15:15.624Z,18.60
2018-05-09T01:17:50.558Z,18.60
2018-05-09T01:20:25.559Z,18.50
2018-05-09T01:23:00.959Z,18.60
2018-05-09T01:25:36.479Z,18.50
2018-05-09T01:28:11.240Z,18.60
2018-05-09T01:30:46.139Z,18.50
2018-05-09T01:33:20.968Z,18.40
2018-05-09T01:35:56.011Z,18.30
2018-05-09T01:38:31.040Z,18.40
2018-05-09T01:41:06.190Z,18.30
2018-05-09T01:43:42.230Z,18.20
2018-05-09T01:46:17.271Z,18.20
2018-05-09T01:48:52.102Z,18.20
2018-05-09T01:51:27.137Z,18.20
2018-05-09T01:54:01.869Z,18.20
2018-05-09T01:56:37.311Z,18.20
2018-05-09T01:59:13.211Z,18.20
2018-05-09T02:01:49.735Z,18.20
2018-05-09T02:04:24.873Z,18.20
2018-05-09T02:07:00.017Z,18.20
2018-05-09T02:09:35.867Z,18.20
2018-05-09T02:12:11.001Z,18.20
2018-05-09T02:14:46.855Z,18.30
2018-05-09T02:17:22.403Z,18.30
2018-05-09T02:19:58.156Z,18.40
2018-05-09T02:22:33.197Z,18.40
2018-05-09T02:25:08.841Z,18.20
2018-05-09T02:27:44.594Z,18.20
2018-05-09T02:30:20.038Z,18.10
2018-05-09T02:32:54.771Z,18.10
2018-05-09T02:35:29.800Z,18.10
2018-05-09T02:38:04.631Z,18.10
2018-05-09T02:40:40.417Z,18.20
2018-05-09T02:43:15.323Z,18.40
2018-05-09T02:45:51.783Z,18.40
2018-05-09T02:48:27.229Z,18.30
2018-05-09T02:51:02.065Z,18.30
2018-05-09T02:53:36.891Z,18.20
2018-05-09T02:56:11.721Z,18.20
2018-05-09T02:58:46.759Z,18.20
2018-05-09T03:01:21.895Z,18.20
2018-05-09T03:03:57.556Z,18.20
2018-05-09T03:06:32.373Z,18.20
2018-05-09T03:09:07.826Z,18.10
2018-05-09T03:11:43.073Z,18.10
2018-05-09T03:14:18.506Z,18.10
2018-05-09T03:16:53.954Z,18.30
2018-05-09T03:19:29.701Z,18.20
2018-05-09T03:22:05.353Z,18.30
2018-05-09T03:24:41.723Z,18.20
2018-05-09T03:27:17.509Z,18.20
2018-05-09T03:29:53.383Z,18.20
2018-05-09T03:32:28.360Z,18.10
2018-05-09T03:35:04.232Z,18.10
2018-05-09T03:37:43.444Z,18.00
2018-05-09T03:40:18.380Z,17.90
2018-05-09T03:42:53.213Z,17.90
2018-05-09T03:45:28.500Z,17.90
2018-05-09T03:48:04.915Z,18.00
2018-05-09T03:50:40.361Z,18.00
2018-05-09T03:53:15.588Z,18.00
2018-05-09T03:55:51.459Z,17.90
2018-05-09T03:58:26.424Z,17.80
2018-05-09T04:01:02.111Z,17.70
2018-05-09T04:03:51.318Z,17.60
2018-05-09T04:09:50.735Z,17.50
2018-05-09T04:12:25.768Z,17.60
2018-05-09T04:15:00.853Z,17.70
2018-05-09T04:17:36.556Z,17.90
2018-05-09T04:20:11.527Z,17.80
2018-05-09T04:22:47.245Z,17.80
2018-05-09T04:25:23.034Z,17.90
2018-05-09T04:27:58.130Z,17.90
2018-05-09T04:30:32.903Z,17.90
2018-05-09T04:33:08.408Z,17.90
2018-05-09T04:35:43.457Z,17.90
2018-05-09T04:38:18.620Z,18.00
2018-05-09T04:40:53.728Z,18.00
2018-05-09T04:43:28.648Z,18.10
2018-05-09T04:46:03.690Z,18.30
2018-05-09T04:48:39.127Z,18.20
2018-05-09T04:51:15.805Z,18.00
2018-05-09T04:53:51.252Z,18.00
2018-05-09T04:56:26.117Z,18.10
2018-05-09T04:59:02.235Z,18.00
2018-05-09T05:01:37.693Z,18.00
2018-05-09T05:04:12.720Z,18.00
2018-05-09T05:06:47.761Z,18.10
2018-05-09T05:09:22.999Z,18.00
2018-05-09T05:11:59.041Z,18.00
2018-05-09T05:14:34.400Z,18.20
2018-05-09T05:17:09.742Z,18.10
2018-05-09T05:19:45.339Z,18.00
2018-05-09T05:22:21.045Z,18.00
2018-05-09T05:24:56.797Z,18.20
2018-05-09T05:27:32.854Z,18.30
2018-05-09T05:30:08.601Z,18.30
2018-05-09T05:32:44.611Z,18.20
2018-05-09T05:35:20.309Z,18.20
2018-05-09T05:37:55.139Z,18.10
2018-05-09T05:40:29.970Z,18.10
2018-05-09T05:43:05.210Z,18.20
2018-05-09T05:45:40.246Z,18.20
2018-05-09T05:48:15.016Z,18.20
2018-05-09T05:50:49.805Z,18.40
2018-05-09T05:53:24.946Z,18.30
2018-05-09T05:56:01.426Z,18.40
2018-05-09T05:58:36.750Z,18.30
2018-05-09T06:01:12.201Z,18.20
2018-05-09T06:03:47.342Z,18.20
2018-05-09T06:06:22.195Z,18.30
2018-05-09T06:09:00.269Z,18.30
2018-05-09T06:11:35.107Z,18.50
2018-05-09T06:14:11.159Z,18.50
2018-05-09T06:16:47.489Z,18.50
2018-05-09T06:19:22.597Z,18.60
2018-05-09T06:21:58.314Z,18.60
2018-05-09T06:24:33.148Z,18.80
2018-05-09T06:27:10.023Z,18.80
2018-05-09T06:29:45.464Z,18.80
2018-05-09T06:32:21.728Z,19.10
2018-05-09T06:34:56.905Z,19.20
2018-05-09T06:37:32.375Z,19.30
2018-05-09T06:40:08.009Z,19.00
2018-05-09T06:42:43.100Z,18.70
2018-05-09T06:45:18.752Z,18.60
2018-05-09T06:47:54.199Z,18.60
2018-05-09T06:50:30.504Z,18.70
2018-05-09T06:53:08.704Z,18.70
2018-05-09T06:55:44.010Z,18.90
2018-05-09T06:58:19.662Z,19.00
2018-05-09T07:00:55.538Z,19.00
2018-05-09T07:03:30.287Z,19.20
2018-05-09T07:06:06.005Z,19.80
2018-05-09T07:08:41.665Z,19.80
2018-05-09T07:11:16.895Z,20.00
2018-05-09T07:13:52.736Z,19.90
2018-05-09T07:16:29.030Z,19.90
2018-05-09T07:19:05.072Z,19.90
2018-05-09T07:21:40.094Z,20.00
2018-05-09T07:24:15.334Z,20.40
2018-05-09T07:26:50.575Z,20.50
2018-05-09T07:29:25.813Z,20.80
2018-05-09T07:32:00.788Z,21.60
2018-05-09T07:34:36.705Z,21.80
2018-05-09T07:37:13.390Z,21.70
2018-05-09T07:39:51.488Z,21.60
2018-05-09T07:42:28.782Z,21.50
2018-05-09T07:45:04.629Z,21.60
2018-05-09T07:47:39.635Z,21.90
2018-05-09T07:50:17.456Z,22.20
2018-05-09T07:52:52.438Z,22.30
2018-05-09T07:55:27.345Z,22.40
2018-05-09T07:58:03.088Z,23.00
2018-05-09T08:00:38.728Z,23.10
2018-05-09T08:03:14.275Z,23.00
2018-05-09T08:05:49.925Z,22.60
2018-05-09T08:08:24.691Z,22.20
2018-05-09T08:11:00.706Z,21.80
2018-05-09T08:13:35.644Z,21.80
2018-05-09T08:16:10.891Z,22.10
2018-05-09T08:18:46.367Z,22.90
2018-05-09T08:21:23.247Z,24.10
2018-05-09T08:23:58.962Z,24.10
2018-05-09T08:26:34.201Z,23.60
2018-05-09T08:29:10.260Z,23.80
2018-05-09T08:31:45.091Z,23.80
2018-05-09T08:34:20.331Z,23.60
2018-05-09T08:36:55.676Z,23.60
2018-05-09T08:39:30.716Z,24.70
2018-05-09T08:42:05.640Z,26.20
2018-05-09T08:44:41.094Z,27.60
2018-05-09T08:47:16.325Z,27.20
2018-05-09T08:49:52.049Z,27.40
2018-05-09T08:52:26.906Z,28.20
2018-05-09T08:55:02.351Z,28.40
2018-05-09T08:57:37.591Z,28.70
2018-05-09T09:00:12.631Z,29.00
2018-05-09T09:02:47.607Z,29.60
2018-05-09T09:05:23.122Z,30.50
2018-05-09T09:07:58.352Z,30.40
2018-05-09T09:10:33.385Z,30.40
2018-05-09T09:13:08.215Z,30.40
2018-05-09T09:15:43.063Z,30.70
2018-05-09T09:18:19.452Z,28.80
2018-05-09T09:20:54.820Z,28.80
2018-05-09T09:23:29.788Z,29.30
2018-05-09T09:26:04.821Z,29.30
2018-05-09T09:28:40.062Z,28.90
2018-05-09T09:31:15.717Z,27.30
2018-05-09T09:33:50.853Z,25.90
2018-05-09T09:36:26.150Z,25.60
2018-05-09T09:39:02.252Z,25.20
2018-05-09T09:41:37.493Z,24.70
2018-05-09T09:44:13.757Z,24.20
2018-05-09T09:46:49.201Z,24.40
2018-05-09T09:49:24.448Z,24.40
2018-05-09T09:51:59.274Z,24.60
2018-05-09T09:54:34.308Z,24.20
2018-05-09T09:57:09.035Z,24.40
2018-05-09T09:59:45.605Z,24.20
2018-05-09T10:02:21.225Z,24.20
2018-05-09T10:04:56.644Z,24.80
2018-05-09T10:07:31.734Z,25.50
2018-05-09T10:10:07.588Z,26.80
2018-05-09T10:12:42.621Z,26.80
2018-05-09T10:15:17.452Z,26.40
2018-05-09T10:17:53.724Z,26.80
2018-05-09T10:20:29.160Z,26.80
2018-05-09T10:23:03.991Z,28.50
2018-05-09T10:25:39.026Z,28.50
2018-05-09T10:28:14.061Z,28.10
2018-05-09T10:30:48.895Z,28.10
2018-05-09T10:33:24.081Z,27.60
2018-05-09T10:35:58.961Z,27.60
2018-05-09T10:38:33.996Z,28.10
2018-05-09T10:41:09.396Z,27.70
2018-05-09T10:43:45.514Z,27.30
2018-05-09T10:46:20.535Z,27.30
2018-05-09T10:48:55.776Z,26.60
2018-05-09T10:51:31.426Z,26.40
2018-05-09T10:54:06.665Z,26.60
2018-05-09T10:56:41.702Z,26.90
2018-05-09T10:59:17.657Z,26.50
2018-05-09T11:01:52.595Z,26.40
2018-05-09T11:04:27.830Z,27.10
2018-05-09T11:07:03.438Z,27.80
2018-05-09T11:09:38.521Z,28.20
2018-05-09T11:12:13.757Z,27.60
2018-05-09T11:14:48.588Z,27.70
2018-05-09T11:17:24.031Z,28.50
2018-05-09T11:19:59.847Z,29.10
2018-05-09T11:22:37.997Z,30.60
2018-05-09T11:25:13.234Z,31.50
2018-05-09T11:27:49.601Z,30.40
2018-05-09T11:30:25.045Z,30.40
2018-05-09T11:33:00.904Z,30.50
2018-05-09T11:35:36.546Z,29.90
2018-05-09T11:38:11.785Z,29.30
2018-05-09T11:40:48.493Z,30.90
2018-05-09T11:43:24.863Z,29.70
2018-05-09T11:46:03.854Z,29.70
2018-05-09T11:48:39.505Z,29.00
2018-05-09T11:51:14.563Z,30.00
2018-05-09T11:53:50.375Z,32.30
2018-05-09T11:56:25.225Z,31.20
2018-05-09T11:59:00.463Z,29.10
2018-05-09T12:01:35.791Z,27.90
2018-05-09T12:04:10.839Z,27.50
2018-05-09T12:06:46.901Z,26.60
2018-05-09T12:09:24.631Z,25.50
2018-05-09T12:12:00.254Z,24.90
2018-05-09T12:14:35.282Z,24.50
2018-05-09T12:17:11.711Z,24.10
2018-05-09T12:19:47.677Z,24.20
2018-05-09T12:22:27.617Z,23.70
2018-05-09T12:25:03.306Z,23.30
2018-05-09T12:27:38.751Z,23.30
2018-05-09T12:30:13.583Z,23.10
2018-05-09T12:32:48.553Z,23.40
2018-05-09T12:35:24.659Z,23.10
2018-05-09T12:38:00.121Z,23.30
2018-05-09T12:40:34.971Z,23.20
2018-05-09T12:43:10.604Z,23.20
2018-05-09T12:45:47.077Z,23.40
2018-05-09T12:48:22.313Z,23.40
2018-05-09T12:50:57.304Z,24.10
2018-05-09T12:53:33.512Z,24.80
2018-05-09T12:56:09.263Z,25.50
2018-05-09T12:58:45.116Z,24.70
2018-05-09T13:01:20.972Z,24.00
2018-05-09T13:03:56.158Z,24.00
2018-05-09T13:06:31.242Z,23.70
2018-05-09T13:09:06.627Z,23.30
2018-05-09T13:11:41.929Z,22.80
2018-05-09T13:14:16.756Z,22.10
2018-05-09T13:16:52.204Z,22.10
2018-05-09T13:19:27.796Z,21.70
2018-05-09T13:22:02.684Z,21.60
2018-05-09T13:24:38.334Z,21.50
2018-05-09T13:27:13.718Z,21.50
2018-05-09T13:29:49.017Z,21.50
2018-05-09T13:32:25.080Z,21.10
2018-05-09T13:35:00.316Z,21.00
2018-05-09T13:37:35.353Z,21.10
2018-05-09T13:40:12.733Z,20.90
2018-05-09T13:42:47.669Z,20.90
2018-05-09T13:45:22.504Z,20.70
2018-05-09T13:47:57.546Z,20.60
2018-05-09T13:50:33.088Z,20.60
2018-05-09T13:53:09.516Z,20.20
2018-05-09T13:55:44.754Z,20.20
2018-05-09T13:58:19.625Z,20.30
2018-05-09T14:00:56.375Z,20.00
2018-05-09T14:03:31.333Z,20.00
2018-05-09T14:06:06.311Z,19.90
2018-05-09T14:08:42.223Z,19.90
2018-05-09T14:11:17.464Z,19.90
2018-05-09T14:13:53.787Z,19.80
2018-05-09T14:16:29.184Z,19.80
2018-05-09T14:19:05.232Z,19.70
2018-05-09T14:21:41.494Z,19.60
2018-05-09T14:24:17.560Z,19.70
2018-05-09T14:26:52.384Z,19.60
2018-05-09T14:29:27.419Z,19.50
2018-05-09T14:32:02.433Z,19.50
2018-05-09T14:34:37.837Z,19.60
2018-05-09T14:37:13.553Z,19.60
2018-05-09T14:39:49.407Z,19.90
2018-05-09T14:42:24.234Z,19.90
2018-05-09T14:44:59.884Z,20.10
2018-05-09T14:47:34.723Z,20.00
2018-05-09T14:50:11.714Z,19.90
2018-05-09T14:52:47.619Z,19.80
2018-05-09T14:55:22.481Z,20.20
2018-05-09T14:57:58.057Z,20.30
2018-05-09T15:00:33.473Z,20.40
2018-05-09T15:03:10.147Z,20.80
2018-05-09T15:05:45.118Z,20.80
2018-05-09T15:08:20.377Z,20.70
2018-05-09T15:10:55.564Z,20.70
2018-05-09T15:13:30.593Z,20.60
2018-05-09T15:16:06.243Z,20.60
2018-05-09T15:18:42.097Z,20.40
2018-05-09T15:21:16.935Z,20.30
2018-05-09T15:23:53.547Z,20.40
2018-05-09T15:26:28.471Z,20.40
2018-05-09T15:29:03.573Z,20.40
2018-05-09T15:31:39.424Z,20.20
2018-05-09T15:34:15.799Z,20.00
2018-05-09T15:36:51.142Z,20.00
2018-05-09T15:39:25.966Z,20.20
2018-05-09T15:42:01.103Z,20.40
2018-05-09T15:44:35.940Z,20.40
2018-05-09T15:47:10.966Z,20.30
2018-05-09T15:49:46.411Z,20.70
2018-05-09T15:52:21.650Z,20.10
2018-05-09T15:54:56.697Z,20.40
2018-05-09T15:57:31.723Z,20.40
2018-05-09T16:00:06.966Z,20.20
2018-05-09T16:02:41.795Z,20.10
2018-05-09T16:05:17.752Z,20.20
2018-05-09T16:07:54.217Z,20.10
2018-05-09T16:10:30.515Z,20.30
2018-05-09T16:13:05.732Z,20.30
2018-05-09T16:15:40.760Z,20.20
2018-05-09T16:18:15.794Z,20.20
2018-05-09T16:20:50.847Z,20.30
2018-05-09T16:23:26.069Z,20.60
2018-05-09T16:26:00.898Z,20.60
2018-05-09T16:28:38.118Z,20.70
2018-05-09T16:31:14.861Z,21.10
2018-05-09T16:33:50.098Z,21.10
2018-05-09T16:36:25.236Z,20.90
2018-05-09T16:39:00.173Z,20.90
2018-05-09T16:41:34.936Z,20.90
2018-05-09T16:44:09.859Z,20.90
2018-05-09T16:46:44.661Z,20.50
2018-05-09T16:49:19.696Z,20.50
2018-05-09T16:51:55.548Z,20.50
2018-05-09T16:54:30.183Z,20.50
2018-05-09T16:57:06.438Z,20.20
2018-05-09T16:59:43.522Z,20.20
2018-05-09T17:02:18.556Z,20.30
2018-05-09T17:04:53.524Z,20.30
2018-05-09T17:07:32.529Z,20.20
2018-05-09T17:10:08.065Z,20.10
2018-05-09T17:12:43.719Z,20.00
2018-05-09T17:15:18.980Z,20.10
2018-05-09T17:17:54.811Z,20.10
2018-05-09T17:20:30.610Z,20.00
2018-05-09T17:23:06.323Z,20.00
2018-05-09T17:25:42.375Z,20.10
2018-05-09T17:28:17.423Z,20.00
2018-05-09T17:30:52.201Z,21.20
2018-05-09T17:33:29.751Z,19.90
2018-05-09T17:36:05.181Z,19.80
2018-05-09T17:38:40.212Z,20.00
2018-05-09T17:41:15.013Z,19.90
2018-05-09T17:43:50.488Z,19.90
2018-05-09T17:46:25.535Z,20.10
2018-05-09T17:49:01.922Z,20.20
2018-05-09T17:51:37.236Z,20.20
2018-05-09T17:54:13.089Z,20.10
2018-05-09T17:56:48.122Z,20.20
2018-05-09T17:59:26.236Z,20.20
2018-05-09T18:02:01.484Z,19.90
2018-05-09T18:04:37.264Z,19.90
2018-05-09T18:07:13.599Z,19.80
2018-05-09T18:09:49.240Z,19.80
2018-05-09T18:12:25.891Z,19.60
2018-05-09T18:15:01.559Z,19.60
2018-05-09T18:17:37.208Z,19.50
2018-05-09T18:20:12.464Z,19.70
2018-05-09T18:22:48.506Z,19.70
2018-05-09T18:25:24.776Z,19.60
2018-05-09T18:28:00.198Z,19.60
2018-05-09T18:30:35.053Z,19.70
2018-05-09T18:33:10.091Z,19.70
2018-05-09T18:35:45.741Z,19.60
2018-05-09T18:38:20.874Z,19.70
2018-05-09T18:40:56.659Z,19.60
2018-05-09T18:43:32.724Z,19.60
2018-05-09T18:46:09.353Z,19.50
2018-05-09T18:48:44.443Z,19.50
2018-05-09T18:51:19.885Z,19.50
2018-05-09T18:53:57.584Z,19.60
2018-05-09T18:56:32.600Z,19.60
2018-05-09T18:59:09.640Z,19.50
2018-05-09T19:01:45.364Z,19.50
2018-05-09T19:04:21.017Z,19.50
2018-05-09T19:06:55.965Z,19.50
2018-05-09T19:09:32.099Z,19.30
2018-05-09T19:12:08.794Z,19.20
2018-05-09T19:14:44.211Z,19.20
2018-05-09T19:17:19.655Z,19.20
2018-05-09T19:19:56.125Z,19.30
2018-05-09T19:22:31.293Z,19.30
2018-05-09T19:25:07.422Z,19.30
2018-05-09T19:27:42.465Z,19.30
2018-05-09T19:30:17.289Z,19.30
2018-05-09T19:32:52.938Z,19.30
2018-05-09T19:35:27.770Z,19.00
2018-05-09T19:38:02.601Z,18.90
2018-05-09T19:40:38.669Z,18.90
2018-05-09T19:43:13.490Z,18.90
2018-05-09T19:45:48.316Z,18.90
2018-05-09T19:48:24.785Z,18.80
2018-05-09T19:51:00.030Z,18.80
2018-05-09T19:53:34.857Z,18.80
2018-05-09T19:56:09.888Z,18.80
2018-05-09T19:58:45.756Z,18.80
2018-05-09T20:01:21.073Z,18.80
2018-05-09T20:03:56.685Z,18.80
2018-05-09T20:06:32.673Z,18.70
2018-05-09T20:09:07.734Z,18.70
2018-05-09T20:11:43.583Z,18.80
2018-05-09T20:14:18.416Z,18.80
2018-05-09T20:16:54.055Z,18.80
2018-05-09T20:19:29.509Z,18.80
2018-05-09T20:22:04.342Z,18.90
2018-05-09T20:24:40.811Z,19.20
2018-05-09T20:27:16.051Z,19.10
2018-05-09T20:29:51.501Z,19.10
2018-05-09T20:32:38.833Z,19.10
2018-05-09T20:35:14.470Z,18.90
2018-05-09T20:37:49.913Z,18.90
2018-05-09T20:40:26.182Z,19.00
2018-05-09T20:43:01.634Z,19.00
2018-05-09T20:45:37.016Z,19.10
2018-05-09T20:48:12.102Z,19.00
2018-05-09T20:50:49.128Z,19.00
2018-05-09T20:53:24.627Z,19.00
2018-05-09T20:55:59.775Z,18.90
2018-05-09T20:58:35.524Z,18.80
2018-05-09T21:01:23.045Z,18.70
2018-05-09T21:03:59.314Z,18.70
2018-05-09T21:06:34.754Z,18.70
2018-05-09T21:09:09.842Z,18.60
2018-05-09T21:11:57.520Z,18.60
2018-05-09T21:14:32.568Z,18.60
2018-05-09T21:17:08.205Z,18.70
2018-05-09T21:19:44.675Z,18.50
2018-05-09T21:22:19.709Z,18.50
2018-05-09T21:24:54.687Z,18.60
2018-05-09T21:27:29.511Z,18.60
2018-05-09T21:30:05.439Z,18.60
2018-05-09T21:32:41.287Z,18.60
2018-05-09T21:35:16.135Z,18.50
2018-05-09T21:37:52.182Z,18.50
2018-05-09T21:40:27.768Z,18.40
2018-05-09T21:43:03.479Z,18.40
2018-05-09T21:45:38.301Z,18.40
2018-05-09T21:48:14.171Z,18.40
2018-05-09T21:50:49.181Z,18.40
2018-05-09T21:53:24.029Z,18.40
2018-05-09T21:56:00.453Z,18.40
2018-05-09T21:58:36.753Z,18.50
2018-05-09T22:01:11.880Z,18.50
2018-05-09T22:03:49.473Z,18.50
2018-05-09T22:06:25.937Z,18.50
2018-05-09T22:09:02.338Z,18.60
2018-05-09T22:11:39.245Z,18.80
2018-05-09T22:14:14.798Z,18.70
2018-05-09T22:16:49.790Z,18.70
2018-05-09T22:19:25.641Z,18.80
2018-05-09T22:22:01.328Z,18.90
2018-05-09T22:24:36.118Z,18.90
2018-05-09T22:27:13.023Z,18.70
2018-05-09T22:29:49.055Z,18.70
2018-05-09T22:32:25.372Z,18.60
2018-05-09T22:35:01.263Z,18.80
2018-05-09T22:37:37.079Z,18.90
2018-05-09T22:40:12.096Z,19.10
2018-05-09T22:42:47.000Z,18.90
2018-05-09T22:45:22.834Z,18.80
2018-05-09T22:47:57.888Z,18.60
2018-05-09T22:50:33.124Z,18.50
2018-05-09T22:53:08.674Z,18.50
2018-05-09T22:55:43.504Z,18.60
2018-05-09T22:58:18.333Z,18.80
2018-05-09T23:00:53.712Z,18.70
2018-05-09T23:03:29.221Z,18.80
2018-05-09T23:06:04.469Z,18.70
2018-05-09T23:08:39.912Z,18.80
2018-05-09T23:11:14.742Z,19.00
2018-05-09T23:13:50.384Z,19.00
2018-05-09T23:16:25.431Z,18.90
2018-05-09T23:19:00.251Z,18.80
2018-05-09T23:21:35.905Z,18.70
2018-05-09T23:24:10.740Z,18.60
2018-05-09T23:26:47.741Z,18.60
2018-05-09T23:29:23.469Z,18.60
2018-05-09T23:31:58.517Z,18.60
2018-05-09T23:34:34.261Z,18.60
2018-05-09T23:37:08.995Z,18.60
2018-05-09T23:39:44.014Z,18.60
2018-05-09T23:42:19.048Z,18.90
2018-05-09T23:44:53.890Z,19.00
2018-05-09T23:47:29.062Z,19.10
2018-05-09T23:50:04.720Z,19.10
2018-05-09T23:52:40.219Z,19.10
2018-05-09T23:55:15.251Z,19.10
2018-05-09T23:57:51.023Z,19.20
